Time;durP1;ratioP1;P1;durP2;ratioP2;P2;SDS_P1;SDS_P2;PMS_P1;PMS_P2;Temp;Humidity;BMP_temperature;BMP_pressure;BME280_temperature;BME280_humidity;BME280_pressure;Samples;Min_cycle;Max_cycle;Signal;HPM_P1;HPM_P2
2021/12/09 00:00:01;;;;;;;14.57;5.20;;;;;1.90;99621.00;;;;4992620;28;20225;-73
2021/12/09 00:02:47;;;;;;;10.93;5.23;;;;;1.80;99615.00;;;;4985272;28;20250;-74
2021/12/09 00:05:36;;;;;;;7.07;4.30;;;;;1.90;99629.00;;;;4977598;28;20223;-75
2021/12/09 00:08:24;;;;;;;7.97;4.00;;;;;1.80;99620.00;;;;4986182;28;20235;-74
2021/12/09 00:11:12;;;;;;;7.80;4.10;;;;;1.70;99616.00;;;;4985136;28;21041;-73
2021/12/09 00:13:59;;;;;;;8.97;4.30;;;;;1.70;99615.00;;;;4997021;28;20222;-74
2021/12/09 00:16:45;;;;;;;5.20;3.57;;;;;1.70;99619.00;;;;4989117;28;20231;-73
2021/12/09 00:19:32;;;;;;;6.30;3.97;;;;;1.70;99615.00;;;;5006433;28;20303;-73
2021/12/09 00:22:18;;;;;;;8.53;3.50;;;;;1.80;99624.00;;;;5013636;28;20854;-74
2021/12/09 00:25:05;;;;;;;4.27;3.00;;;;;1.80;99614.00;;;;4991905;28;20222;-73
2021/12/09 00:27:53;;;;;;;10.43;3.50;;;;;1.70;99618.00;;;;4989517;28;20246;-73
2021/12/09 00:30:39;;;;;;;5.23;3.30;;;;;1.90;99626.00;;;;4982651;28;20226;-73
2021/12/09 00:33:26;;;;;;;5.63;3.40;;;;;1.60;99620.00;;;;4999006;28;20402;-73
2021/12/09 00:36:14;;;;;;;5.93;3.67;;;;;1.70;99625.00;;;;5000330;28;20265;-74
2021/12/09 00:39:01;;;;;;;10.03;3.60;;;;;1.60;99596.00;;;;4997342;28;20270;-73
2021/12/09 00:41:47;;;;;;;7.33;3.10;;;;;1.60;99621.00;;;;4994330;28;20242;-73
2021/12/09 00:44:35;;;;;;;6.00;3.47;;;;;1.60;99620.00;;;;4989976;28;20822;-73
2021/12/09 00:47:22;;;;;;;6.77;3.40;;;;;1.60;99623.00;;;;4998958;28;20868;-75
2021/12/09 00:50:10;;;;;;;5.87;3.30;;;;;1.70;99607.00;;;;4978089;28;20277;-72
2021/12/09 00:52:56;;;;;;;5.67;3.47;;;;;1.40;99625.00;;;;4987909;28;20230;-76
2021/12/09 00:55:43;;;;;;;7.67;3.20;;;;;1.40;99622.00;;;;5015825;28;20421;-73
2021/12/09 00:58:29;;;;;;;5.70;3.47;;;;;1.60;99621.00;;;;4987615;28;20246;-73
2021/12/09 01:01:17;;;;;;;5.03;3.10;;;;;1.40;99622.00;;;;4986044;28;20230;-74
2021/12/09 01:04:07;;;;;;;8.47;3.47;;;;;1.40;99613.00;;;;5014384;28;20260;-74
2021/12/09 01:06:54;;;;;;;7.83;3.20;;;;;1.40;99626.00;;;;4987717;28;20230;-74
2021/12/09 01:09:41;;;;;;;11.60;3.30;;;;;1.40;99631.00;;;;5006635;28;20942;-73
2021/12/09 01:12:27;;;;;;;6.50;3.13;;;;;1.20;99633.00;;;;4992394;28;20242;-73
2021/12/09 01:15:16;;;;;;;3.80;2.93;;;;;1.30;99635.00;;;;4983582;28;20231;-73
2021/12/09 01:18:03;;;;;;;6.13;3.20;;;;;1.40;99640.00;;;;4980066;28;20784;-75
2021/12/09 01:20:51;;;;;;;4.93;3.07;;;;;1.30;99642.00;;;;4979378;28;20226;-73
2021/12/09 01:23:40;;;;;;;7.10;3.13;;;;;1.30;99635.00;;;;4988078;28;20249;-73
2021/12/09 01:26:28;;;;;;;5.97;2.77;;;;;1.20;99634.00;;;;5012503;28;20369;-72
2021/12/09 01:29:18;;;;;;;9.33;3.50;;;;;1.30;99643.00;;;;5008077;28;20597;-73
2021/12/09 01:32:07;;;;;;;5.83;2.73;;;;;1.20;99636.00;;;;5009817;28;20894;-73
2021/12/09 01:34:55;;;;;;;7.13;3.20;;;;;1.20;99647.00;;;;4983394;28;20227;-73
2021/12/09 01:37:41;;;;;;;6.03;3.70;;;;;1.30;99641.00;;;;4994933;28;20235;-73
2021/12/09 01:40:30;;;;;;;5.40;3.20;;;;;1.30;99653.00;;;;5007216;28;20230;-73
2021/12/09 01:43:16;;;;;;;7.67;3.70;;;;;1.30;99644.00;;;;4988321;28;20242;-74
2021/12/09 01:46:04;;;;;;;6.43;3.70;;;;;1.20;99641.00;;;;5002502;28;20229;-74
2021/12/09 01:48:53;;;;;;;6.93;3.67;;;;;1.20;99653.00;;;;5004789;28;20265;-74
2021/12/09 01:51:41;;;;;;;10.90;4.10;;;;;1.10;99663.00;;;;5006685;28;20620;-73
2021/12/09 01:54:28;;;;;;;5.50;3.30;;;;;1.20;99670.00;;;;5012238;28;20327;-74
2021/12/09 01:57:14;;;;;;;6.43;3.30;;;;;1.20;99672.00;;;;5026742;28;20263;-75
2021/12/09 02:00:01;;;;;;;5.00;3.60;;;;;1.10;99663.00;;;;5025578;28;20221;-74
2021/12/09 02:02:47;;;;;;;5.23;3.20;;;;;1.20;99658.00;;;;5008601;28;20294;-74
2021/12/09 02:05:43;;;;;;;8.27;3.63;;;;;1.10;99666.00;;;;5032940;28;20241;-73
2021/12/09 02:08:31;;;;;;;6.93;3.23;;;;;1.10;99672.00;;;;5029348;28;20230;-73
2021/12/09 02:11:18;;;;;;;5.63;3.23;;;;;1.20;99656.00;;;;5021888;28;20254;-76
2021/12/09 02:14:05;;;;;;;7.37;3.37;;;;;1.10;99675.00;;;;5003145;28;20230;-75
2021/12/09 02:16:51;;;;;;;5.97;3.40;;;;;1.10;99655.00;;;;5010095;28;20215;-73
2021/12/09 02:19:41;;;;;;;6.53;3.37;;;;;1.00;99678.00;;;;5005017;28;20226;-74
2021/12/09 02:22:30;;;;;;;10.87;3.50;;;;;1.10;99668.00;;;;5037132;28;20288;-74
2021/12/09 02:25:18;;;;;;;8.67;3.80;;;;;1.10;99666.00;;;;5022915;28;20254;-74
2021/12/09 02:28:05;;;;;;;7.20;3.53;;;;;1.00;99661.00;;;;4983048;28;20233;-73
2021/12/09 02:30:52;;;;;;;6.70;3.03;;;;;1.00;99663.00;;;;4984109;28;20239;-73
2021/12/09 02:33:38;;;;;;;7.50;3.37;;;;;1.00;99653.00;;;;4979904;28;20362;-74
2021/12/09 02:36:25;;;;;;;6.10;3.40;;;;;1.00;99666.00;;;;5003610;28;20243;-72
2021/12/09 02:39:15;;;;;;;6.80;3.30;;;;;0.90;99654.00;;;;4988126;28;20994;-74
2021/12/09 02:42:01;;;;;;;7.53;3.27;;;;;1.10;99657.00;;;;4984697;28;20235;-73
2021/12/09 02:44:49;;;;;;;8.90;3.70;;;;;1.10;99650.00;;;;4981992;28;20239;-74
2021/12/09 02:47:35;;;;;;;9.73;3.90;;;;;1.00;99651.00;;;;4979952;28;20752;-73
2021/12/09 02:50:22;;;;;;;8.73;3.00;;;;;1.00;99664.00;;;;4981770;28;20294;-74
2021/12/09 02:53:08;;;;;;;6.43;3.80;;;;;1.00;99664.00;;;;4981827;28;20229;-73
2021/12/09 02:55:56;;;;;;;8.70;3.97;;;;;1.00;99670.00;;;;4999249;28;20229;-74
2021/12/09 02:58:42;;;;;;;6.63;3.43;;;;;1.00;99666.00;;;;4987410;28;20886;-73
2021/12/09 03:01:33;;;;;;;5.53;3.67;;;;;1.00;99655.00;;;;4984279;28;20234;-73
2021/12/09 03:04:19;;;;;;;7.13;4.00;;;;;0.90;99645.00;;;;4997883;28;20241;-72
2021/12/09 03:07:06;;;;;;;6.20;3.80;;;;;0.80;99663.00;;;;5005844;28;20339;-73
2021/12/09 03:09:59;;;;;;;11.43;3.83;;;;;0.90;99663.00;;;;4998857;28;20225;-73
2021/12/09 03:12:49;;;;;;;6.23;3.70;;;;;0.80;99667.00;;;;5005575;28;20233;-74
2021/12/09 03:15:35;;;;;;;5.83;3.37;;;;;0.80;99671.00;;;;5004449;28;20255;-73
2021/12/09 03:18:22;;;;;;;8.87;4.57;;;;;0.70;99678.00;;;;5005597;28;20265;-73
2021/12/09 03:21:15;;;;;;;6.97;4.10;;;;;0.70;99643.00;;;;5001681;28;20234;-74
2021/12/09 03:24:04;;;;;;;9.10;4.20;;;;;0.80;99662.00;;;;5000626;28;20300;-73
2021/12/09 03:26:54;;;;;;;6.63;4.07;;;;;0.70;99664.00;;;;4998193;28;20229;-74
2021/12/09 03:29:42;;;;;;;7.90;4.00;;;;;0.80;99631.00;;;;5005766;28;20778;-73
2021/12/09 03:32:29;;;;;;;6.77;3.97;;;;;0.80;99662.00;;;;5005558;28;20230;-74
2021/12/09 03:35:15;;;;;;;8.87;3.97;;;;;0.90;99661.00;;;;4990481;28;20226;-72
2021/12/09 03:38:02;;;;;;;8.00;4.40;;;;;0.80;99666.00;;;;4991726;28;20277;-73
2021/12/09 03:40:48;;;;;;;5.63;3.50;;;;;0.80;99664.00;;;;4985496;28;20710;-74
2021/12/09 03:43:34;;;;;;;7.47;3.93;;;;;0.80;99652.00;;;;4986271;28;20258;-74
2021/12/09 03:46:25;;;;;;;10.60;3.87;;;;;0.80;99667.00;;;;5012921;28;20288;-74
2021/12/09 03:49:12;;;;;;;5.67;3.50;;;;;0.70;99659.00;;;;5005820;28;20229;-73
2021/12/09 03:51:58;;;;;;;6.93;3.57;;;;;0.70;99670.00;;;;4999111;28;20884;-73
2021/12/09 03:54:45;;;;;;;7.13;3.60;;;;;0.50;99652.00;;;;4997239;28;20230;-74
2021/12/09 03:57:31;;;;;;;8.07;4.13;;;;;0.70;99683.00;;;;5003725;28;20250;-74
2021/12/09 04:00:17;;;;;;;7.10;3.83;;;;;0.70;99668.00;;;;5003135;28;20238;-74
2021/12/09 04:03:05;;;;;;;9.00;4.13;;;;;0.70;99672.00;;;;4976769;28;20239;-74
2021/12/09 04:05:52;;;;;;;10.87;4.07;;;;;0.70;99665.00;;;;4984658;28;20250;-74
2021/12/09 04:08:39;;;;;;;10.53;4.37;;;;;0.60;99664.00;;;;4989036;28;20242;-74
2021/12/09 04:11:26;;;;;;;10.20;3.73;;;;;0.60;99673.00;;;;4995269;28;20293;-74
2021/12/09 04:14:19;;;;;;;8.70;3.67;;;;;0.60;99664.00;;;;4999027;28;20237;-74
2021/12/09 04:17:06;;;;;;;8.30;4.20;;;;;0.70;99664.00;;;;4990419;28;22652;-74
2021/12/09 04:19:53;;;;;;;9.50;3.97;;;;;0.60;99661.00;;;;4995772;28;20229;-74
2021/12/09 04:22:41;;;;;;;8.10;4.10;;;;;0.70;99677.00;;;;4988597;28;20238;-73
2021/12/09 04:25:28;;;;;;;6.03;3.87;;;;;0.60;99683.00;;;;4991057;28;20246;-74
2021/12/09 04:28:14;;;;;;;7.47;3.80;;;;;0.60;99683.00;;;;4989522;28;20231;-73
2021/12/09 04:31:01;;;;;;;8.73;3.93;;;;;0.60;99679.00;;;;4988666;28;20222;-73
2021/12/09 04:33:47;;;;;;;8.20;3.60;;;;;0.60;99684.00;;;;4989198;28;20317;-76
2021/12/09 04:36:37;;;;;;;7.40;3.73;;;;;0.70;99649.00;;;;4989013;28;20259;-74
2021/12/09 04:39:24;;;;;;;6.63;3.47;;;;;0.50;99670.00;;;;5008483;28;20721;-73
2021/12/09 04:42:10;;;;;;;6.00;3.97;;;;;0.50;99652.00;;;;4988692;28;20301;-73
2021/12/09 04:44:57;;;;;;;5.23;3.53;;;;;0.50;99676.00;;;;4988437;28;20845;-73
2021/12/09 04:47:43;;;;;;;7.77;3.87;;;;;0.60;99664.00;;;;4987278;28;20325;-73
2021/12/09 04:50:29;;;;;;;5.97;3.57;;;;;0.60;99663.00;;;;5013114;28;20237;-73
2021/12/09 04:53:17;;;;;;;10.93;4.27;;;;;0.60;99667.00;;;;5020431;28;20291;-72
2021/12/09 04:56:04;;;;;;;8.03;4.33;;;;;0.60;99660.00;;;;5008342;28;20274;-74
2021/12/09 04:58:50;;;;;;;7.73;3.90;;;;;0.70;99680.00;;;;5007485;28;20229;-73
2021/12/09 05:01:37;;;;;;;6.70;4.10;;;;;0.60;99678.00;;;;4996360;28;20278;-73
2021/12/09 05:04:24;;;;;;;9.43;4.50;;;;;0.60;99682.00;;;;5004138;28;20286;-73
2021/12/09 05:07:10;;;;;;;7.93;3.97;;;;;0.50;99693.00;;;;5007511;28;20266;-72
2021/12/09 05:09:57;;;;;;;8.57;4.27;;;;;0.70;99673.00;;;;4988291;28;20226;-73
2021/12/09 05:12:44;;;;;;;7.90;4.23;;;;;0.70;99684.00;;;;4996035;28;20239;-72
2021/12/09 05:15:31;;;;;;;6.53;3.40;;;;;0.60;99688.00;;;;4987758;28;20257;-73
2021/12/09 05:18:18;;;;;;;7.07;3.90;;;;;0.70;99689.00;;;;4999945;28;20242;-72
2021/12/09 05:21:06;;;;;;;7.73;4.20;;;;;0.70;99704.00;;;;5001593;28;20281;-75
2021/12/09 05:23:53;;;;;;;7.43;4.30;;;;;0.60;99685.00;;;;5000281;28;20273;-73
2021/12/09 05:26:45;;;;;;;6.57;3.80;;;;;0.60;99668.00;;;;5007722;28;20241;-73
2021/12/09 05:29:38;;;;;;;10.07;4.37;;;;;0.70;99690.00;;;;5005958;28;20234;-72
2021/12/09 05:32:24;;;;;;;8.93;4.37;;;;;0.60;99699.00;;;;5007205;28;20233;-73
2021/12/09 05:35:11;;;;;;;8.00;4.03;;;;;0.70;99684.00;;;;5007448;28;20284;-73
2021/12/09 05:37:57;;;;;;;8.70;4.00;;;;;0.70;99713.00;;;;5001226;28;20326;-73
2021/12/09 05:40:44;;;;;;;7.27;4.70;;;;;0.60;99709.00;;;;4999079;28;20241;-73
2021/12/09 05:43:31;;;;;;;6.83;4.07;;;;;0.60;99706.00;;;;5007361;28;20234;-73
2021/12/09 05:46:18;;;;;;;10.43;4.27;;;;;0.50;99722.00;;;;5003795;28;20278;-74
2021/12/09 05:49:05;;;;;;;6.03;3.50;;;;;0.50;99733.00;;;;4989727;28;20634;-74
2021/12/09 05:51:51;;;;;;;9.87;4.10;;;;;0.50;99725.00;;;;5000215;28;20222;-74
2021/12/09 05:54:38;;;;;;;8.73;4.60;;;;;0.70;99733.00;;;;5008196;28;20301;-74
2021/12/09 05:57:24;;;;;;;8.87;4.23;;;;;0.50;99729.00;;;;5009452;28;20242;-74
2021/12/09 06:00:12;;;;;;;6.00;4.13;;;;;0.50;99737.00;;;;5013629;28;20238;-74
2021/12/09 06:02:59;;;;;;;6.07;3.80;;;;;0.60;99725.00;;;;4991654;28;20721;-74
2021/12/09 06:05:45;;;;;;;6.00;3.70;;;;;0.60;99733.00;;;;4993196;28;20258;-75
2021/12/09 06:08:32;;;;;;;7.50;4.33;;;;;0.50;99714.00;;;;4994387;28;20333;-73
2021/12/09 06:11:19;;;;;;;8.77;4.20;;;;;0.40;99735.00;;;;5017863;28;20600;-73
2021/12/09 06:14:06;;;;;;;9.50;4.03;;;;;0.50;99737.00;;;;5021160;28;20862;-74
2021/12/09 06:16:54;;;;;;;6.53;3.87;;;;;0.50;99740.00;;;;5012968;28;20236;-74
2021/12/09 06:19:41;;;;;;;9.50;3.67;;;;;0.40;99740.00;;;;5019614;28;20238;-74
2021/12/09 06:22:27;;;;;;;9.07;4.67;;;;;0.50;99733.00;;;;4990638;28;20715;-76
2021/12/09 06:25:18;;;;;;;9.43;4.10;;;;;0.50;99733.00;;;;4994685;28;20237;-74
2021/12/09 06:28:05;;;;;;;12.83;4.50;;;;;0.30;99736.00;;;;4986865;28;20242;-75
2021/12/09 06:30:51;;;;;;;8.67;4.20;;;;;0.50;99734.00;;;;5005592;28;20842;-75
2021/12/09 06:33:39;;;;;;;7.03;3.67;;;;;0.40;99741.00;;;;4992241;28;20245;-75
2021/12/09 06:36:25;;;;;;;8.47;4.20;;;;;0.40;99740.00;;;;5023164;28;20256;-74
2021/12/09 06:39:12;;;;;;;7.37;4.10;;;;;0.40;99739.00;;;;5014630;28;20442;-74
2021/12/09 06:41:59;;;;;;;11.03;3.53;;;;;0.40;99737.00;;;;4995478;28;20228;-74
2021/12/09 06:44:45;;;;;;;10.40;3.80;;;;;0.40;99737.00;;;;5007129;28;20230;-74
2021/12/09 06:47:32;;;;;;;7.43;4.10;;;;;0.30;99735.00;;;;5008701;28;20246;-75
2021/12/09 06:50:21;;;;;;;8.43;4.23;;;;;0.40;99740.00;;;;5013672;28;20307;-76
2021/12/09 06:53:08;;;;;;;8.63;4.47;;;;;0.40;99741.00;;;;4986093;28;20234;-75
2021/12/09 06:55:55;;;;;;;8.87;4.43;;;;;0.40;99752.00;;;;4999490;28;20226;-75
2021/12/09 06:58:41;;;;;;;7.47;4.50;;;;;0.40;99745.00;;;;4986957;28;20876;-74
2021/12/09 07:01:28;;;;;;;7.70;4.30;;;;;0.30;99731.00;;;;5015083;28;20726;-74
2021/12/09 07:04:15;;;;;;;10.10;4.50;;;;;0.40;99742.00;;;;5000053;28;20351;-74
2021/12/09 07:07:03;;;;;;;7.83;4.10;;;;;0.20;99744.00;;;;4990881;28;20370;-75
2021/12/09 07:09:49;;;;;;;9.47;4.50;;;;;0.30;99742.00;;;;4986870;28;20226;-74
2021/12/09 07:12:37;;;;;;;7.13;4.20;;;;;0.30;99734.00;;;;4999676;28;20666;-75
2021/12/09 07:15:24;;;;;;;9.33;3.97;;;;;0.30;99746.00;;;;5013821;28;20228;-75
2021/12/09 07:18:11;;;;;;;9.37;4.37;;;;;0.30;99747.00;;;;5017745;28;20671;-75
2021/12/09 07:20:58;;;;;;;12.23;4.03;;;;;0.30;99742.00;;;;5007321;28;20300;-75
2021/12/09 07:23:45;;;;;;;10.87;4.17;;;;;0.30;99747.00;;;;4997528;28;20708;-75
2021/12/09 07:26:32;;;;;;;8.47;4.40;;;;;0.20;99761.00;;;;4985538;28;20237;-74
2021/12/09 07:29:19;;;;;;;10.43;4.20;;;;;0.30;99756.00;;;;4982980;28;20393;-74
2021/12/09 07:32:06;;;;;;;9.23;4.47;;;;;0.20;99757.00;;;;5007357;28;20276;-73
2021/12/09 07:34:53;;;;;;;9.23;4.03;;;;;0.20;99764.00;;;;5000811;28;20772;-72
2021/12/09 07:37:40;;;;;;;9.03;4.37;;;;;0.30;99776.00;;;;5016631;28;20229;-74
2021/12/09 07:40:28;;;;;;;9.90;4.20;;;;;0.40;99776.00;;;;4998869;28;20239;-73
2021/12/09 07:43:15;;;;;;;13.30;4.47;;;;;0.40;99780.00;;;;5003864;28;20230;-74
2021/12/09 07:46:01;;;;;;;6.77;4.33;;;;;0.30;99773.00;;;;5013253;28;20234;-74
2021/12/09 07:48:48;;;;;;;12.33;5.77;;;;;0.30;99775.00;;;;4999389;28;20264;-74
2021/12/09 07:51:34;;;;;;;16.93;5.57;;;;;0.30;99777.00;;;;5002576;28;20287;-74
2021/12/09 07:54:21;;;;;;;7.53;4.43;;;;;0.30;99785.00;;;;5016160;28;20238;-74
2021/12/09 07:57:09;;;;;;;11.03;4.10;;;;;0.30;99760.00;;;;5006455;28;20707;-73
2021/12/09 07:59:55;;;;;;;9.57;4.27;;;;;0.30;99788.00;;;;5009643;28;20949;-74
2021/12/09 08:02:42;;;;;;;12.13;4.63;;;;;0.40;99786.00;;;;5005926;28;20231;-76
2021/12/09 08:05:31;;;;;;;7.10;4.23;;;;;0.40;99784.00;;;;5008220;28;20238;-75
2021/12/09 08:08:17;;;;;;;7.67;4.13;;;;;0.50;99775.00;;;;5013247;28;20360;-71
2021/12/09 08:11:04;;;;;;;11.17;5.33;;;;;0.40;99783.00;;;;5005878;28;20252;-71
2021/12/09 08:13:52;;;;;;;7.90;4.70;;;;;0.60;99785.00;;;;5000810;28;20301;-75
2021/12/09 08:16:39;;;;;;;8.23;4.30;;;;;0.60;99783.00;;;;5002984;28;21771;-75
2021/12/09 08:19:25;;;;;;;9.30;4.23;;;;;0.40;99786.00;;;;5008205;28;20257;-74
2021/12/09 08:22:14;;;;;;;10.07;4.53;;;;;0.50;99791.00;;;;5002046;28;20819;-74
2021/12/09 08:25:01;;;;;;;13.93;5.90;;;;;0.70;99794.00;;;;4987495;28;20250;-73
2021/12/09 08:27:47;;;;;;;9.43;4.67;;;;;0.60;99789.00;;;;5004876;28;20312;-73
2021/12/09 08:30:36;;;;;;;9.27;5.43;;;;;0.70;99803.00;;;;4994438;28;20235;-74
2021/12/09 08:33:38;;;;;;;11.63;4.87;;;;;0.70;99789.00;;;;5013736;28;20241;-73
2021/12/09 08:36:44;;;;;;;7.63;4.27;;;;;0.90;99793.00;;;;5005217;28;20226;-74
2021/12/09 08:39:31;;;;;;;12.97;4.87;;;;;0.90;99795.00;;;;5012559;28;20751;-72
2021/12/09 08:42:18;;;;;;;13.27;5.10;;;;;0.80;99781.00;;;;5012616;28;20252;-73
2021/12/09 08:45:09;;;;;;;13.43;4.83;;;;;0.90;99806.00;;;;5014446;28;21001;-73
2021/12/09 08:47:57;;;;;;;8.40;4.53;;;;;1.00;99802.00;;;;5012814;28;20237;-74
2021/12/09 08:50:44;;;;;;;8.73;4.50;;;;;1.00;99804.00;;;;5008148;28;20241;-75
2021/12/09 08:53:31;;;;;;;9.43;4.73;;;;;1.10;99803.00;;;;5024149;28;20233;-73
2021/12/09 08:56:17;;;;;;;13.00;4.83;;;;;0.90;99805.00;;;;5009532;28;20238;-74
2021/12/09 08:59:04;;;;;;;10.37;4.13;;;;;1.20;99792.00;;;;4985697;28;20243;-74
2021/12/09 09:01:51;;;;;;;17.13;4.30;;;;;1.30;99806.00;;;;4982203;28;20725;-74
2021/12/09 09:04:39;;;;;;;11.97;4.77;;;;;1.40;99806.00;;;;4980291;28;20318;-74
2021/12/09 09:07:25;;;;;;;8.67;4.20;;;;;1.40;99805.00;;;;5008508;28;20639;-72
2021/12/09 09:10:13;;;;;;;9.70;4.60;;;;;1.50;99805.00;;;;4987683;28;20880;-73
2021/12/09 09:13:00;;;;;;;7.37;4.33;;;;;1.60;99783.00;;;;5003435;28;20350;-74
2021/12/09 09:15:48;;;;;;;8.10;4.70;;;;;1.70;99805.00;;;;5013488;28;20229;-74
2021/12/09 09:18:35;;;;;;;14.37;5.37;;;;;1.70;99818.00;;;;5012986;28;20245;-75
2021/12/09 09:21:22;;;;;;;11.67;5.03;;;;;1.70;99820.00;;;;5008838;28;20246;-76
2021/12/09 09:24:09;;;;;;;12.80;5.40;;;;;2.00;99818.00;;;;5010292;28;20239;-75
2021/12/09 09:26:56;;;;;;;9.67;5.27;;;;;2.00;99823.00;;;;4991735;28;20369;-75
2021/12/09 09:29:43;;;;;;;10.13;5.10;;;;;2.00;99835.00;;;;5007228;28;20447;-75
2021/12/09 09:32:29;;;;;;;9.40;5.27;;;;;2.10;99821.00;;;;5005823;28;20242;-75
2021/12/09 09:35:16;;;;;;;16.73;5.87;;;;;2.40;99822.00;;;;5007799;28;20246;-74
2021/12/09 09:38:04;;;;;;;14.90;5.17;;;;;2.50;99827.00;;;;5006918;28;20237;-74
2021/12/09 09:40:59;;;;;;;14.00;6.17;;;;;2.60;99823.00;;;;4999688;28;20230;-74
2021/12/09 09:43:58;;;;;;;9.07;4.67;;;;;2.60;99837.00;;;;4992081;28;20992;-75
2021/12/09 09:46:45;;;;;;;11.97;5.63;;;;;2.70;99834.00;;;;4997672;28;20230;-75
2021/12/09 09:49:34;;;;;;;11.50;5.37;;;;;3.00;99841.00;;;;5012192;28;20310;-75
2021/12/09 09:52:20;;;;;;;16.63;6.63;;;;;3.00;99845.00;;;;5013183;28;20311;-73
2021/12/09 09:55:13;;;;;;;7.17;4.77;;;;;3.00;99841.00;;;;4988572;28;20229;-73
2021/12/09 09:58:00;;;;;;;14.00;5.70;;;;;3.00;99842.00;;;;4989961;28;20242;-74
2021/12/09 10:00:46;;;;;;;9.27;5.00;;;;;3.00;99841.00;;;;5001678;28;20729;-74
2021/12/09 10:03:40;;;;;;;9.30;5.33;;;;;3.00;99850.00;;;;4995219;28;20230;-74
2021/12/09 10:06:27;;;;;;;9.67;4.77;;;;;3.10;99834.00;;;;5004244;28;20241;-74
2021/12/09 10:09:17;;;;;;;13.53;5.40;;;;;3.30;99837.00;;;;5007683;28;21090;-75
2021/12/09 10:12:05;;;;;;;9.20;5.23;;;;;3.20;99833.00;;;;5006947;28;20234;-73
2021/12/09 10:14:54;;;;;;;12.10;5.40;;;;;3.20;99846.00;;;;4995324;28;20736;-74
2021/12/09 10:17:47;;;;;;;11.10;4.80;;;;;3.20;99842.00;;;;5013514;28;20233;-75
2021/12/09 10:20:52;;;;;;;10.73;5.53;;;;;3.40;99842.00;;;;5009565;28;20243;-73
2021/12/09 10:23:42;;;;;;;9.20;4.97;;;;;3.40;99832.00;;;;5018623;28;20233;-75
2021/12/09 10:26:30;;;;;;;13.63;5.20;;;;;3.60;99848.00;;;;5006936;28;20235;-75
2021/12/09 10:29:27;;;;;;;7.83;4.93;;;;;3.70;99838.00;;;;5007075;28;20620;-75
2021/12/09 10:32:21;;;;;;;8.97;4.70;;;;;3.60;99833.00;;;;5005697;28;20371;-75
2021/12/09 10:35:10;;;;;;;10.03;5.07;;;;;3.80;99827.00;;;;4994107;28;20234;-75
2021/12/09 10:37:56;;;;;;;12.53;5.33;;;;;3.80;99801.00;;;;5008182;28;20260;-75
2021/12/09 10:40:42;;;;;;;10.67;5.30;;;;;3.80;99803.00;;;;4997952;28;20230;-74
2021/12/09 10:43:28;;;;;;;14.73;5.63;;;;;3.90;99798.00;;;;4996486;28;20351;-74
2021/12/09 10:46:47;;;;;;;7.63;4.80;;;;;3.90;99806.00;;;;4996573;28;20237;-75
2021/12/09 10:49:40;;;;;;;15.10;5.80;;;;;4.00;99799.00;;;;4986367;28;20730;-75
2021/12/09 10:52:36;;;;;;;12.43;5.17;;;;;4.10;99800.00;;;;4997265;28;20963;-75
2021/12/09 10:55:28;;;;;;;12.63;4.60;;;;;4.10;99800.00;;;;4993520;28;20226;-76
2021/12/09 10:58:16;;;;;;;14.33;5.20;;;;;4.20;99795.00;;;;4997338;28;21016;-75
2021/12/09 11:01:06;;;;;;;11.63;5.20;;;;;4.30;99789.00;;;;4993212;28;20234;-75
2021/12/09 11:03:58;;;;;;;12.63;4.97;;;;;4.30;99797.00;;;;4993549;28;20229;-75
2021/12/09 11:06:47;;;;;;;11.90;5.60;;;;;4.30;99789.00;;;;4994496;28;20233;-75
2021/12/09 11:09:33;;;;;;;12.70;6.37;;;;;4.40;99791.00;;;;5000546;28;20230;-75
2021/12/09 11:12:29;;;;;;;10.50;5.63;;;;;4.40;99785.00;;;;4992121;28;20712;-75
2021/12/09 11:15:17;;;;;;;10.00;4.90;;;;;4.50;99780.00;;;;4996759;28;20222;-75
2021/12/09 11:18:08;;;;;;;15.67;5.40;;;;;4.50;99778.00;;;;4990518;28;20325;-75
2021/12/09 11:20:56;;;;;;;6.70;4.50;;;;;4.40;99765.00;;;;4995015;28;20222;-73
2021/12/09 11:23:46;;;;;;;10.40;4.50;;;;;4.50;99773.00;;;;5003104;28;20234;-74
2021/12/09 11:26:51;;;;;;;12.30;4.80;;;;;4.50;99759.00;;;;5001055;28;20233;-75
2021/12/09 11:29:42;;;;;;;13.00;5.00;;;;;4.50;99768.00;;;;5001149;28;20341;-75
2021/12/09 11:32:40;;;;;;;9.50;4.57;;;;;4.70;99756.00;;;;4996308;28;20222;-74
2021/12/09 11:35:30;;;;;;;8.17;4.80;;;;;4.80;99757.00;;;;4982438;28;20306;-73
2021/12/09 11:38:32;;;;;;;7.13;4.40;;;;;4.70;99758.00;;;;4998847;28;20241;-74
2021/12/09 11:41:33;;;;;;;11.50;5.00;;;;;4.90;99761.00;;;;4995274;28;20237;-73
2021/12/09 11:44:23;;;;;;;7.97;4.67;;;;;5.10;99763.00;;;;4985165;28;20262;-73
2021/12/09 11:47:10;;;;;;;7.60;4.47;;;;;5.20;99762.00;;;;4980778;28;20246;-74
2021/12/09 11:50:20;;;;;;;11.23;4.67;;;;;5.10;99767.00;;;;4999578;28;20733;-74
2021/12/09 11:53:08;;;;;;;6.87;4.30;;;;;5.00;99753.00;;;;4996832;28;20718;-74
2021/12/09 11:56:04;;;;;;;7.37;4.33;;;;;5.00;99766.00;;;;4998333;28;20237;-75
2021/12/09 11:59:21;;;;;;;9.50;4.50;;;;;5.10;99761.00;;;;4997688;28;20749;-74
2021/12/09 12:11:42;;;;;;;11.30;4.37;;;;;5.00;99753.00;;;;4997527;28;20256;-75
2021/12/09 12:14:34;;;;;;;12.07;4.70;;;;;4.90;99750.00;;;;4998938;28;20730;-75
2021/12/09 12:17:28;;;;;;;7.80;5.20;;;;;5.00;99745.00;;;;4995126;28;20246;-75
2021/12/09 12:20:30;;;;;;;10.13;5.10;;;;;5.10;99741.00;;;;4998326;28;20238;-74
2021/12/09 12:23:34;;;;;;;9.20;4.57;;;;;5.10;99743.00;;;;5001449;28;20238;-73
2021/12/09 12:26:53;;;;;;;11.83;4.60;;;;;4.90;99748.00;;;;4992802;28;20752;-73
2021/12/09 12:30:07;;;;;;;9.87;5.47;;;;;5.00;99750.00;;;;4989790;28;20246;-74
2021/12/09 12:36:40;;;;;;;12.63;4.97;;;;;5.00;99758.00;;;;4988930;28;20225;-73
2021/12/09 12:39:35;;;;;;;10.77;5.40;;;;;5.10;99755.00;;;;4989996;28;20290;-74
2021/12/09 12:42:34;;;;;;;11.03;5.43;;;;;5.10;99745.00;;;;4988499;28;21002;-72
2021/12/09 12:48:57;;;;;;;9.53;4.80;;;;;4.80;99745.00;;;;4989188;28;20268;-74
2021/12/09 12:51:54;;;;;;;7.20;5.30;;;;;4.80;99752.00;;;;4981779;28;20301;-73
2021/12/09 12:54:52;;;;;;;7.83;5.20;;;;;4.80;99742.00;;;;4997522;28;20300;-73
2021/12/09 12:57:43;;;;;;;10.87;5.50;;;;;4.80;99744.00;;;;4995733;28;20490;-73
2021/12/09 13:00:42;;;;;;;11.63;6.17;;;;;4.80;99758.00;;;;4993998;28;20315;-73
2021/12/09 13:03:34;;;;;;;8.90;5.17;;;;;4.70;99753.00;;;;4991956;28;20379;-73
2021/12/09 13:06:43;;;;;;;10.03;5.57;;;;;4.80;99754.00;;;;4995199;28;20234;-74
2021/12/09 13:09:35;;;;;;;8.67;5.23;;;;;4.80;99761.00;;;;4999363;28;20730;-72
2021/12/09 13:12:40;;;;;;;8.77;5.03;;;;;4.90;99755.00;;;;4993240;28;20225;-74
2021/12/09 13:15:33;;;;;;;13.73;5.90;;;;;4.80;99755.00;;;;4995255;28;20225;-74
2021/12/09 13:18:45;;;;;;;11.10;6.27;;;;;4.90;99754.00;;;;4990087;28;20245;-74
2021/12/09 13:21:55;;;;;;;9.00;4.87;;;;;4.80;99757.00;;;;4987388;28;20237;-72
2021/12/09 13:24:48;;;;;;;9.90;5.30;;;;;4.80;99767.00;;;;4988659;28;20357;-74
2021/12/09 13:27:52;;;;;;;11.53;5.57;;;;;4.80;99759.00;;;;4991155;28;20239;-74
2021/12/09 13:31:02;;;;;;;9.93;5.70;;;;;4.80;99756.00;;;;4993180;28;20668;-73
2021/12/09 13:34:00;;;;;;;12.40;5.80;;;;;4.90;99750.00;;;;4997837;28;20235;-73
2021/12/09 13:40:21;;;;;;;8.73;5.07;;;;;4.90;99755.00;;;;4955591;28;20642;-74
2021/12/09 13:46:23;;;;;;;13.10;5.23;;;;;4.80;99757.00;;;;4992253;28;20308;-73
2021/12/09 13:49:21;;;;;;;15.27;5.67;;;;;4.70;99757.00;;;;4988410;28;20226;-74
2021/12/09 13:55:17;;;;;;;8.97;5.93;;;;;4.90;99756.00;;;;4996369;28;20248;-73
2021/12/09 13:58:07;;;;;;;10.97;5.43;;;;;4.70;99759.00;;;;4990789;28;20726;-74
2021/12/09 14:00:54;;;;;;;10.77;5.40;;;;;4.80;99742.00;;;;4991911;28;20230;-74
2021/12/09 14:03:41;;;;;;;10.87;5.47;;;;;4.80;99744.00;;;;4995844;28;20234;-73
2021/12/09 14:06:29;;;;;;;10.00;5.57;;;;;4.70;99750.00;;;;4996700;28;20352;-73
2021/12/09 14:09:15;;;;;;;14.53;5.33;;;;;4.80;99738.00;;;;4992463;28;20304;-73
2021/12/09 14:12:03;;;;;;;12.00;4.87;;;;;4.70;99732.00;;;;4975664;28;20727;-73
2021/12/09 14:14:59;;;;;;;13.03;5.17;;;;;5.00;99741.00;;;;4991365;28;20226;-74
2021/12/09 14:17:58;;;;;;;10.70;5.03;;;;;4.80;99725.00;;;;4989979;28;20238;-72
2021/12/09 14:20:45;;;;;;;9.07;5.47;;;;;5.00;99738.00;;;;4999112;28;21833;-72
2021/12/09 14:23:32;;;;;;;11.10;5.47;;;;;4.90;99730.00;;;;4997949;28;20600;-74
2021/12/09 14:26:22;;;;;;;12.97;5.50;;;;;4.80;99731.00;;;;4985805;28;20234;-75
2021/12/09 14:29:09;;;;;;;11.70;5.90;;;;;4.80;99740.00;;;;4994072;28;20604;-73
2021/12/09 14:31:59;;;;;;;9.60;5.20;;;;;4.80;99737.00;;;;4981616;28;20231;-74
2021/12/09 14:34:48;;;;;;;11.40;5.47;;;;;4.90;99741.00;;;;4978551;28;20242;-73
2021/12/09 14:37:54;;;;;;;12.43;5.73;;;;;5.00;99743.00;;;;4991907;28;20713;-72
2021/12/09 14:40:45;;;;;;;10.63;5.20;;;;;5.00;99724.00;;;;4999093;28;20237;-75